This is the latest recevied weather packets stored in our database for station/object TG5ALY-16. If no packets are shown the sender has not sent any weather packets the latest 10 day(s).
| Time | Temp. | Humidity | Pressure | Rain* | Wind** | Luminosity | Snow |
|---|---|---|---|---|---|---|---|
| 1777615441 | 12.22° C | 86% | 1016 hPa | 0 mm | - | - | - |
| 1777614841 | 12.22° C | 86% | 1016 hPa | 0 mm | - | - | - |
| 1777614240 | 12.78° C | 88% | 1016 hPa | 0 mm | - | - | - |
| 1777613639 | 12.78° C | 88% | 1016 hPa | 0 mm | - | - | - |
| 1777613038 | 12.78° C | 89% | 1016 hPa | 0 mm | - | - | - |
| 1777612438 | 12.78° C | 90% | 1016 hPa | 0 mm | - | - | - |
| 1777611837 | 12.78° C | 92% | 1016 hPa | 0 mm | - | - | - |
| 1777611236 | 12.78° C | 92% | 1016 hPa | 0 mm | - | - | - |
| 1777610636 | 13.33° C | 90% | 1016 hPa | 0 mm | - | - | - |
| 1777610035 | 13.33° C | 89% | 1016 hPa | 0 mm | - | - | - |
| 1777609434 | 13.89° C | 84% | 1016 hPa | 0 mm | - | - | - |
| 1777608833 | 13.89° C | 84% | 1016 hPa | 0 mm | - | - | - |
| 1777608233 | 13.33° C | 84% | 1016 hPa | 0 mm | - | - | - |
| 1777607632 | 13.33° C | 86% | 1016 hPa | 0 mm | - | - | - |
| 1777607032 | 13.89° C | 91% | 1016 hPa | 0 mm | - | - | - |
| 1777606431 | 13.89° C | 91% | 1016 hPa | 0 mm | - | - | - |
| 1777605830 | 15.56° C | 89% | 1015 hPa | 0 mm | - | - | - |
| 1777605229 | 15° C | 89% | 1015 hPa | 0 mm | - | - | - |
| 1777604629 | 14.44° C | 89% | 1015 hPa | 0 mm | - | - | - |
| 1777604028 | 13.89° C | 89% | 1015 hPa | 0 mm | - | - | - |
| 1777603428 | 13.33° C | 89% | 1015 hPa | 0 mm | - | - | - |
| 1777602827 | 12.78° C | 89% | 1015 hPa | 0 mm | - | - | - |
| 1777602226 | 16.11° C | 79% | 1015 hPa | 0 mm | - | - | - |
| 1777601625 | 15.56° C | 79% | 1015 hPa | 0 mm | - | - | - |
| 1777601025 | 15° C | 79% | 1015 hPa | 0 mm | - | - | - |
* Rain latest hour (hover to see other rain measurements)
** Current wind speed in m/s (hover to see current wind gust speed)